Bluefield, WV

19:10 EST le 05 février 2016 (GMT -0500)
South Bluefield | | Change Station
CLOSE
Current Station
Stations météorologiques personnelles
Location: Bluefield, WV
Altitude: 2700 ft
Stations météo à proximité

Alt. 2700 ft 37.26 °N, 81.20 °W | Updated 23 seconds ago

Clear
Ciel dégagé
29.3 ° F
Paraît 29 ° F
N
0.0
Vent Variable Vent de Ouest
Gusts 0.0 mph

Aujourd'hui
Haut(e) -- | Bas -- ° F
--% Risque de précip.
Hier
Haut(e) -- | Bas -- ° F
Precip. -- pouce
Pression 30.41 pouce
Visibilité 10.0 Miles terrestres
Nuages Ciel dégagé
Refroidissement éolien 29 ° F
Point de rosée 12 ° F
Humidité 48%
Précipitations 0.00 pouce
Profondeur de la couche neigeuse Non disponible.
7:24 AM 5:53 PM
Lune descendante, 8% visible
METAR KBLF 052352Z AUTO 31004KT 10SM CLR M02/M13 A3032 RMK AO2 SLP297 T10171128 10011 21017 51014 TSNO
Pression 30.41 pouce
Visibilité 10.0 Miles terrestres
Nuages Ciel dégagé
Refroidissement éolien 29 ° F
Point de rosée 12 ° F
Humidité 48%
Précipitations 0.00 pouce
Profondeur de la couche neigeuse Non disponible.
7:24 AM 5:53 PM
Lune descendante, 8% visible
METAR KBLF 052352Z AUTO 31004KT 10SM CLR M02/M13 A3032 RMK AO2 SLP297 T10171128 10011 21017 51014 TSNO

10-Day Weather Forecast

Almanac

Astronomie

Feb. 05, 2016 Lever Coucher
Temps réel
Crépuscule civil
Crépuscule nautique
Crépuscule astronomique
Lune
Durée de lumière visible
Longueur du jour
Tomorrow will be .
, % of the Moon is Illuminated

Extrêmes aujourd'hui

State Highs State Lows

Community

WunderPhotos

Upload Photos

1,890,894 Photos téléchargées !

WunderBlog® & News

Nearby

Qualité de l'air

  Qualité de l'air Indice de la qualité de l'air Polluant
Not available.

Épaisseur de neige

Station Depth Altitude

Activité sismique

Ville Distance Mag. Time & Date
Minimum magnitude displayed is 2.5.

Températures des eaux côtières

Lieu Température

Stations

Stations météo à proximité

Emplacement de la station Température Refroidissement éolien Point de rosée Humidité Vent Precip. Alt. Mise à jour Type
                   

Watches & Warnings

There are currently no watches in effect.